Time;durP1;ratioP1;P1;durP2;ratioP2;P2;SDS_P1;SDS_P2;PMS_P1;PMS_P2;Temp;Humidity;BMP_temperature;BMP_pressure;BME280_temperature;BME280_humidity;BME280_pressure;Samples;Min_cycle;Max_cycle;Signal;HPM_P1;HPM_P2
2022/03/04 00:01:31;;;;;;;14.77;9.60;;;;;;;-2.50;69.32;99431.78;5095496;28;20256;-73
2022/03/04 00:03:59;;;;;;;15.23;10.47;;;;;;;-2.43;69.43;99430.28;5096331;28;20234;-74
2022/03/04 00:06:25;;;;;;;13.93;9.87;;;;;;;-2.36;68.29;99431.34;5077578;28;20271;-73
2022/03/04 00:08:52;;;;;;;15.10;9.90;;;;;;;-2.39;68.55;99428.19;5088638;28;20232;-75
2022/03/04 00:11:19;;;;;;;14.13;9.73;;;;;;;-2.24;67.52;99430.19;5078541;28;20235;-76
2022/03/04 00:13:46;;;;;;;13.20;9.30;;;;;;;-2.07;66.11;99425.19;5083151;28;20231;-74
2022/03/04 00:16:12;;;;;;;14.93;10.17;;;;;;;-2.06;66.39;99426.84;5082623;28;20220;-74
2022/03/04 00:18:39;;;;;;;14.43;9.87;;;;;;;-1.79;65.04;99432.09;5098127;28;20654;-74
2022/03/04 00:21:08;;;;;;;13.67;10.43;;;;;;;-1.74;64.51;99435.13;5067318;28;20255;-74
2022/03/04 00:23:36;;;;;;;15.33;10.40;;;;;;;-1.81;64.77;99428.78;5075109;28;20233;-75
2022/03/04 00:26:04;;;;;;;16.67;9.83;;;;;;;-1.84;64.76;99429.09;5081520;28;20220;-78
2022/03/04 00:28:31;;;;;;;16.87;10.10;;;;;;;-1.81;65.13;99434.03;5099528;28;20296;-72
2022/03/04 00:30:58;;;;;;;15.80;9.93;;;;;;;-1.76;64.49;99434.41;5099818;28;20720;-75
2022/03/04 00:33:25;;;;;;;14.30;9.93;;;;;;;-1.62;63.73;99425.22;5098846;28;20310;-72
2022/03/04 00:35:53;;;;;;;14.67;10.03;;;;;;;-1.68;63.60;99420.56;5100816;28;20240;-73
2022/03/04 00:38:20;;;;;;;14.30;9.73;;;;;;;-1.68;63.82;99439.75;5081181;28;20232;-77
2022/03/04 00:40:48;;;;;;;16.60;9.50;;;;;;;-1.48;63.92;99435.22;5097029;28;20232;-73
2022/03/04 00:43:16;;;;;;;14.73;9.73;;;;;;;-1.54;62.99;99422.72;5094796;28;20224;-74
2022/03/04 00:45:45;;;;;;;12.87;10.00;;;;;;;-1.48;63.00;99432.59;5081281;28;20316;-77
2022/03/04 00:48:12;;;;;;;15.53;10.60;;;;;;;-1.50;63.39;99421.44;5079461;28;20278;-75
2022/03/04 00:50:38;;;;;;;15.63;10.80;;;;;;;-1.53;63.20;99422.53;5100096;28;20516;-73
2022/03/04 00:53:05;;;;;;;17.33;10.37;;;;;;;-1.40;63.00;99424.84;5094674;28;20239;-73
2022/03/04 00:55:37;;;;;;;16.07;11.00;;;;;;;-1.27;62.95;99424.47;5094280;28;20223;-73
2022/03/04 00:58:07;;;;;;;14.87;10.70;;;;;;;-1.53;63.54;99424.34;5100211;28;20270;-72
2022/03/04 01:00:40;;;;;;;17.03;11.50;;;;;;;-1.48;63.38;99417.66;5090966;28;20307;-72
2022/03/04 01:03:07;;;;;;;18.17;11.07;;;;;;;-1.34;62.36;99418.97;5092827;28;20291;-72
2022/03/04 01:05:34;;;;;;;16.40;11.20;;;;;;;-1.53;63.33;99416.44;5097907;28;20251;-72
2022/03/04 01:08:01;;;;;;;18.33;12.33;;;;;;;-1.51;63.66;99417.16;5081136;28;20250;-73
2022/03/04 01:10:30;;;;;;;16.10;10.93;;;;;;;-1.34;63.19;99418.97;5099294;28;20522;-73
2022/03/04 01:12:57;;;;;;;17.03;11.80;;;;;;;-1.40;63.13;99409.06;5094411;28;20232;-74
2022/03/04 01:15:23;;;;;;;16.13;11.97;;;;;;;-1.48;63.34;99416.84;5100793;28;20327;-73
2022/03/04 01:17:51;;;;;;;17.40;11.47;;;;;;;-1.44;63.47;99419.03;5094346;28;20240;-75
2022/03/04 01:20:20;;;;;;;17.43;11.67;;;;;;;-1.57;64.14;99410.69;5094098;28;20251;-73
2022/03/04 01:22:48;;;;;;;16.40;11.73;;;;;;;-1.67;64.90;99411.69;5098058;28;20274;-75
2022/03/04 01:25:15;;;;;;;17.77;11.97;;;;;;;-1.67;65.06;99402.03;5099271;28;20228;-72
2022/03/04 01:27:42;;;;;;;18.23;11.80;;;;;;;-1.77;65.65;99407.34;5089187;28;20228;-73
2022/03/04 01:30:10;;;;;;;19.83;13.30;;;;;;;-1.72;65.60;99406.06;5079808;28;20280;-74
2022/03/04 01:32:37;;;;;;;18.33;12.37;;;;;;;-1.84;65.49;99397.56;5058042;28;20239;-77
2022/03/04 01:35:04;;;;;;;18.60;12.63;;;;;;;-1.82;65.78;99401.69;5098539;28;20227;-73
2022/03/04 01:37:31;;;;;;;18.83;12.57;;;;;;;-1.88;66.03;99402.28;5072419;28;20255;-72
2022/03/04 01:39:57;;;;;;;18.40;12.63;;;;;;;-1.84;65.98;99395.78;5097817;28;20231;-73
2022/03/04 01:42:24;;;;;;;17.70;12.50;;;;;;;-1.84;65.91;99394.94;5090478;28;20259;-74
2022/03/04 01:44:51;;;;;;;20.13;12.97;;;;;;;-1.84;65.97;99393.16;5099577;28;20227;-74
2022/03/04 01:47:18;;;;;;;18.07;12.73;;;;;;;-1.89;66.70;99392.75;5097551;28;20228;-73
2022/03/04 01:49:45;;;;;;;20.23;12.87;;;;;;;-1.90;66.30;99390.25;5097600;28;20651;-74
2022/03/04 01:52:11;;;;;;;17.30;12.40;;;;;;;-1.88;66.58;99393.59;5096382;28;20263;-74
2022/03/04 01:54:38;;;;;;;18.93;13.27;;;;;;;-1.82;66.47;99391.19;5098490;28;20236;-78
2022/03/04 01:57:06;;;;;;;18.47;12.97;;;;;;;-1.77;65.51;99391.56;5098610;28;20216;-74
2022/03/04 01:59:32;;;;;;;21.17;13.03;;;;;;;-1.69;65.67;99393.47;5090103;28;20236;-75
2022/03/04 02:01:59;;;;;;;18.40;12.33;;;;;;;-1.42;63.64;99416.25;5077348;28;20307;-74
2022/03/04 02:04:27;;;;;;;19.97;12.57;;;;;;;-1.64;64.61;99416.69;5088391;28;20281;-73
2022/03/04 02:06:54;;;;;;;16.97;12.20;;;;;;;-1.54;63.35;99409.56;5093602;28;20255;-74
2022/03/04 02:09:21;;;;;;;19.60;12.93;;;;;;;-1.70;64.17;99412.00;5095135;28;20326;-79
2022/03/04 02:11:48;;;;;;;24.97;13.03;;;;;;;-1.68;64.52;99410.88;5097846;28;20224;-74
2022/03/04 02:14:15;;;;;;;21.13;13.30;;;;;;;-1.74;65.03;99416.72;5096579;28;20722;-72
2022/03/04 02:16:53;;;;;;;20.00;12.30;;;;;;;-1.80;65.74;99418.13;5089223;28;20224;-75
2022/03/04 02:19:21;;;;;;;19.83;12.87;;;;;;;-1.43;64.41;99415.44;5080527;28;20239;-74
2022/03/04 02:21:58;;;;;;;20.53;13.50;;;;;;;-1.69;64.31;99404.00;5075478;28;20251;-74
2022/03/04 02:24:26;;;;;;;18.63;12.60;;;;;;;-1.83;66.10;99415.00;5077234;28;20691;-74
2022/03/04 02:26:55;;;;;;;17.43;12.33;;;;;;;-1.96;67.27;99411.88;5087173;28;20259;-74
2022/03/04 02:29:22;;;;;;;17.50;12.27;;;;;;;-1.98;66.65;99411.19;5096511;28;20277;-74
2022/03/04 02:31:50;;;;;;;18.93;13.37;;;;;;;-2.14;67.79;99421.47;5088917;28;20257;-73
2022/03/04 02:34:17;;;;;;;20.57;13.90;;;;;;;-2.22;67.78;99409.91;5089858;28;20224;-73
2022/03/04 02:36:45;;;;;;;17.77;12.53;;;;;;;-2.27;68.47;99414.75;5079121;28;20228;-73
2022/03/04 02:39:16;;;;;;;19.87;12.80;;;;;;;-2.29;68.64;99421.13;5062751;28;20634;-74
2022/03/04 02:41:43;;;;;;;18.33;12.33;;;;;;;-2.45;69.16;99421.72;5095923;28;20280;-73
2022/03/04 02:44:11;;;;;;;19.43;13.00;;;;;;;-2.57;70.30;99433.34;5081010;28;20702;-77
2022/03/04 02:46:38;;;;;;;18.83;12.70;;;;;;;-2.70;70.14;99422.31;5098197;28;20226;-73
2022/03/04 02:49:06;;;;;;;18.63;12.90;;;;;;;-2.67;71.06;99433.34;5091422;28;20224;-74
2022/03/04 02:51:35;;;;;;;20.90;13.67;;;;;;;-2.75;71.90;99430.59;5096392;28;20256;-73
2022/03/04 02:54:02;;;;;;;18.50;13.20;;;;;;;-2.63;70.43;99433.06;5091624;28;20252;-76
2022/03/04 02:56:29;;;;;;;19.87;14.07;;;;;;;-2.67;70.13;99438.59;5093703;28;20251;-73
2022/03/04 02:58:55;;;;;;;20.50;13.40;;;;;;;-2.72;70.03;99437.38;5088256;28;20577;-74
2022/03/04 03:01:22;;;;;;;21.00;14.30;;;;;;;-2.60;69.93;99436.22;5097077;28;20236;-75
2022/03/04 03:03:50;;;;;;;20.43;14.07;;;;;;;-2.57;69.69;99437.75;5099106;28;20224;-73
2022/03/04 03:06:17;;;;;;;17.90;13.53;;;;;;;-2.56;69.73;99434.16;5097051;28;20288;-74
2022/03/04 03:08:44;;;;;;;21.13;13.80;;;;;;;-2.58;69.55;99439.56;5093955;28;20232;-75
2022/03/04 03:11:13;;;;;;;18.27;13.33;;;;;;;-2.58;69.62;99431.69;5091800;28;20626;-75
2022/03/04 03:13:40;;;;;;;22.00;13.90;;;;;;;-2.59;68.97;99431.81;5097134;28;20653;-76
2022/03/04 03:16:07;;;;;;;20.67;13.90;;;;;;;-2.61;68.89;99429.31;5092117;28;20260;-74
2022/03/04 03:18:34;;;;;;;21.07;12.93;;;;;;;-2.51;68.53;99430.13;5097160;28;20284;-73
2022/03/04 03:21:02;;;;;;;22.53;13.87;;;;;;;-2.45;67.63;99426.97;5099109;28;20224;-78
2022/03/04 03:23:29;;;;;;;21.87;15.13;;;;;;;-2.25;65.79;99438.22;5080186;28;20230;-74
2022/03/04 03:25:58;;;;;;;21.47;13.67;;;;;;;-2.20;65.71;99436.00;5078613;28;20260;-76
2022/03/04 03:28:25;;;;;;;19.87;13.37;;;;;;;-2.13;65.27;99442.31;5098410;28;20271;-73
2022/03/04 03:30:53;;;;;;;22.93;14.63;;;;;;;-2.13;65.91;99438.88;5097343;28;20268;-74
2022/03/04 03:33:20;;;;;;;20.37;13.57;;;;;;;-1.88;64.92;99453.97;5098527;28;20238;-78
2022/03/04 03:35:47;;;;;;;24.93;14.93;;;;;;;-2.03;64.81;99451.00;5095919;28;20311;-75
2022/03/04 03:38:15;;;;;;;20.47;14.03;;;;;;;-2.04;65.03;99454.59;5095574;28;20253;-74
2022/03/04 03:40:42;;;;;;;22.83;14.00;;;;;;;-2.04;64.82;99454.59;5088257;28;20270;-76
2022/03/04 03:43:29;;;;;;;25.47;14.83;;;;;;;-1.88;65.69;99457.44;5099058;28;20215;-72
2022/03/04 03:45:56;;;;;;;24.07;15.60;;;;;;;-2.15;67.30;99460.03;5097677;28;20254;-75
2022/03/04 03:48:23;;;;;;;28.80;15.93;;;;;;;-2.02;69.11;99455.28;5093712;28;20253;-76
2022/03/04 03:50:52;;;;;;;26.67;17.53;;;;;;;-1.78;69.41;99462.66;5101858;28;20220;-76
2022/03/04 03:53:18;;;;;;;29.53;18.07;;;;;;;-2.00;71.22;99471.69;5100408;28;20240;-73
2022/03/04 03:55:45;;;;;;;36.27;19.40;;;;;;;-1.82;71.64;99472.59;5098916;28;20258;-77
2022/03/04 03:58:12;;;;;;;31.07;18.73;;;;;;;-1.88;73.65;99475.81;5100321;28;20319;-74
2022/03/04 04:00:39;;;;;;;33.20;21.07;;;;;;;-1.94;73.76;99478.19;5100747;28;20318;-76
2022/03/04 04:03:08;;;;;;;32.40;20.30;;;;;;;-2.01;74.90;99480.56;5097903;28;20661;-74
2022/03/04 04:05:35;;;;;;;30.70;19.43;;;;;;;-1.91;74.21;99483.13;5092332;28;20314;-78
2022/03/04 04:08:02;;;;;;;29.93;19.70;;;;;;;-1.86;73.80;99489.63;5100402;28;20506;-72
2022/03/04 04:10:29;;;;;;;31.17;19.63;;;;;;;-1.92;74.35;99478.88;5082239;28;20263;-73
2022/03/04 04:12:55;;;;;;;33.37;19.80;;;;;;;-1.83;74.38;99491.16;5099665;28;20254;-76
2022/03/04 04:15:23;;;;;;;31.83;20.00;;;;;;;-1.65;72.94;99485.94;5101732;28;20232;-73
2022/03/04 04:17:50;;;;;;;32.37;19.87;;;;;;;-1.60;73.87;99502.09;5081644;28;20235;-78
2022/03/04 04:20:16;;;;;;;34.47;20.70;;;;;;;-1.43;73.86;99493.44;5078207;28;20261;-74
2022/03/04 04:22:44;;;;;;;35.40;20.17;;;;;;;-1.44;74.63;99487.34;5095898;28;20674;-74
2022/03/04 04:25:10;;;;;;;39.43;23.70;;;;;;;-1.45;76.52;99500.66;5100599;28;20311;-72
2022/03/04 04:27:37;;;;;;;52.13;28.60;;;;;;;-1.53;82.79;99503.16;5080455;28;20223;-74
2022/03/04 04:30:04;;;;;;;60.47;33.37;;;;;;;-1.26;93.01;99504.97;5092463;28;20335;-72
2022/03/04 04:32:32;;;;;;;60.00;33.83;;;;;;;-1.27;99.43;99504.16;5094683;28;20230;-73
2022/03/04 04:34:59;;;;;;;61.13;33.97;;;;;;;-1.15;99.89;99502.13;5097003;28;20248;-73
2022/03/04 04:37:26;;;;;;;53.70;31.17;;;;;;;-1.05;97.45;99508.97;5099965;28;20231;-77
2022/03/04 04:39:53;;;;;;;52.47;28.27;;;;;;;-1.01;95.73;99509.50;5098617;28;20314;-73
2022/03/04 04:42:19;;;;;;;53.50;31.50;;;;;;;-1.10;96.00;99508.59;5091976;28;20227;-72
2022/03/04 04:44:46;;;;;;;54.17;30.27;;;;;;;-1.22;95.40;99499.28;5090082;28;20224;-74
2022/03/04 04:47:13;;;;;;;52.47;30.53;;;;;;;-1.09;95.47;99502.38;5098981;28;20563;-76
2022/03/04 04:49:40;;;;;;;54.10;30.93;;;;;;;-1.18;95.38;99502.44;5063163;28;20263;-77
2022/03/04 04:52:07;;;;;;;52.30;31.27;;;;;;;-1.22;96.59;99511.59;5088945;28;20231;-74
2022/03/04 04:54:35;;;;;;;54.03;30.97;;;;;;;-1.04;95.93;99509.81;5097693;28;20246;-73
2022/03/04 04:57:04;;;;;;;59.60;31.90;;;;;;;-1.09;95.89;99510.25;5095902;28;20234;-74
2022/03/04 04:59:31;;;;;;;54.13;30.30;;;;;;;-0.95;95.91;99514.19;5091835;28;20948;-72
2022/03/04 05:01:57;;;;;;;52.37;30.70;;;;;;;-0.93;94.35;99506.94;5096438;28;20263;-74
2022/03/04 05:04:25;;;;;;;55.97;31.87;;;;;;;-1.01;95.59;99507.69;5081559;28;20247;-74
2022/03/04 05:06:52;;;;;;;51.30;31.60;;;;;;;-1.07;96.86;99510.09;5096111;28;20306;-73
2022/03/04 05:09:19;;;;;;;54.20;31.43;;;;;;;-1.20;98.50;99520.13;5096822;28;20642;-73
2022/03/04 05:11:48;;;;;;;53.57;31.03;;;;;;;-1.17;97.75;99514.59;5083277;28;20650;-76
2022/03/04 05:14:14;;;;;;;53.00;32.57;;;;;;;-1.18;96.79;99523.47;5091973;28;20227;-74
2022/03/04 05:16:41;;;;;;;52.00;31.37;;;;;;;-1.02;95.77;99531.50;5092745;28;20223;-75
2022/03/04 05:19:08;;;;;;;50.90;30.27;;;;;;;-1.03;96.17;99528.09;5091826;28;20418;-74
2022/03/04 05:21:35;;;;;;;55.67;30.97;;;;;;;-0.89;93.72;99532.00;5099399;28;20239;-74
2022/03/04 05:24:03;;;;;;;51.83;31.37;;;;;;;-0.96;94.22;99534.38;5097599;28;20281;-76
2022/03/04 05:26:32;;;;;;;50.37;30.40;;;;;;;-0.99;94.82;99539.94;5083372;28;20355;-73
2022/03/04 05:29:03;;;;;;;49.10;30.27;;;;;;;-0.85;91.92;99543.03;5092544;28;20263;-73
2022/03/04 05:31:30;;;;;;;48.80;29.67;;;;;;;-0.74;89.74;99548.06;5094207;28;20227;-75
2022/03/04 05:33:57;;;;;;;47.73;28.80;;;;;;;-0.86;88.53;99550.09;5096079;28;20231;-72
2022/03/04 05:36:24;;;;;;;47.23;27.70;;;;;;;-0.79;88.29;99555.59;5084980;28;20233;-73
2022/03/04 05:38:51;;;;;;;47.20;27.77;;;;;;;-0.70;86.65;99558.13;5086533;28;20224;-72
2022/03/04 05:41:19;;;;;;;46.83;27.10;;;;;;;-0.69;85.34;99556.34;5074495;28;20224;-75
2022/03/04 05:43:48;;;;;;;43.87;26.47;;;;;;;-0.67;85.01;99562.28;5091573;28;20239;-73
2022/03/04 05:46:15;;;;;;;45.63;26.30;;;;;;;-0.64;84.95;99561.97;5091327;28;20235;-78
2022/03/04 05:48:43;;;;;;;44.87;26.20;;;;;;;-0.55;83.13;99564.53;5099091;28;20319;-73
2022/03/04 05:51:11;;;;;;;45.20;26.83;;;;;;;-0.55;84.26;99566.34;5097039;28;20232;-73
2022/03/04 05:53:38;;;;;;;40.13;24.93;;;;;;;-0.57;83.98;99565.69;5099668;28;20761;-73
2022/03/04 05:56:07;;;;;;;42.83;26.00;;;;;;;-0.66;83.87;99564.78;5090184;28;20244;-73
2022/03/04 05:58:34;;;;;;;44.00;26.03;;;;;;;-0.42;83.32;99573.88;5079984;28;20231;-73
2022/03/04 06:01:03;;;;;;;44.73;25.83;;;;;;;-0.60;85.00;99569.44;5098889;28;20511;-74
2022/03/04 06:03:30;;;;;;;45.40;27.00;;;;;;;-0.45;85.20;99575.00;5097776;28;20232;-73
2022/03/04 06:05:57;;;;;;;42.53;26.83;;;;;;;-0.47;84.57;99575.13;5094635;28;20277;-74
2022/03/04 06:08:24;;;;;;;43.40;25.90;;;;;;;-0.57;84.94;99577.03;5068586;28;20233;-75
2022/03/04 06:10:51;;;;;;;41.77;26.63;;;;;;;-0.55;84.23;99576.88;5077817;28;20235;-73
2022/03/04 06:13:18;;;;;;;45.53;26.03;;;;;;;-0.45;82.75;99581.09;5098125;28;20357;-73
2022/03/04 06:15:44;;;;;;;46.70;27.63;;;;;;;-0.46;83.67;99581.22;5098106;28;20247;-74
2022/03/04 06:18:11;;;;;;;43.77;26.43;;;;;;;-0.30;82.52;99591.94;5078220;28;20643;-75
2022/03/04 06:20:39;;;;;;;44.30;26.50;;;;;;;-0.24;80.77;99593.13;5098413;28;20236;-73
2022/03/04 06:23:08;;;;;;;42.77;26.80;;;;;;;-0.21;81.64;99592.81;5097168;28;20556;-74
2022/03/04 06:25:35;;;;;;;46.20;25.93;;;;;;;-0.19;81.25;99601.41;5098127;28;20281;-74
2022/03/04 06:28:03;;;;;;;45.93;27.13;;;;;;;-0.15;80.75;99605.38;5071795;28;20677;-75
2022/03/04 06:30:32;;;;;;;49.37;27.10;;;;;;;-0.27;81.88;99599.50;5076867;28;20224;-72
2022/03/04 06:35:46;;;;;;;43.67;26.23;;;;;;;-0.19;81.25;99609.31;5098616;28;20224;-73
2022/03/04 06:38:13;;;;;;;41.57;26.03;;;;;;;-0.03;80.34;99606.78;5096669;28;20213;-73
2022/03/04 06:40:40;;;;;;;42.53;24.53;;;;;;;-0.06;79.53;99615.84;5079326;28;20258;-74
2022/03/04 06:43:08;;;;;;;41.27;23.13;;;;;;;-0.03;78.28;99614.69;5098180;28;20692;-72
2022/03/04 06:45:36;;;;;;;38.40;22.37;;;;;;;0.04;76.53;99610.47;5098227;28;20280;-73
2022/03/04 06:48:03;;;;;;;39.53;22.00;;;;;;;0.17;76.35;99615.34;5096218;28;20220;-77
2022/03/04 06:50:30;;;;;;;39.57;22.63;;;;;;;0.20;75.16;99617.66;5097077;28;20251;-73
2022/03/04 06:52:57;;;;;;;42.03;23.70;;;;;;;0.01;76.01;99626.56;5072242;28;20296;-73
2022/03/04 06:55:24;;;;;;;38.20;22.40;;;;;;;0.15;75.12;99619.94;5081383;28;20220;-82
2022/03/04 06:57:51;;;;;;;36.73;21.23;;;;;;;0.15;74.52;99625.19;5096819;28;20553;-77
2022/03/04 07:00:18;;;;;;;37.80;22.73;;;;;;;0.24;74.50;99627.75;5074122;28;20263;-73
2022/03/04 07:02:45;;;;;;;35.87;21.53;;;;;;;0.26;74.36;99620.53;5082093;28;20236;-75
2022/03/04 07:05:12;;;;;;;39.23;21.70;;;;;;;0.21;73.79;99621.97;5089793;28;20229;-78
2022/03/04 07:07:39;;;;;;;35.20;20.43;;;;;;;0.35;73.42;99627.50;5099693;28;20326;-74
2022/03/04 07:10:08;;;;;;;37.17;21.67;;;;;;;0.29;72.07;99625.47;5095045;28;20311;-75
2022/03/04 07:12:36;;;;;;;33.83;20.03;;;;;;;0.35;70.91;99630.13;5063992;28;20232;-74
2022/03/04 07:15:04;;;;;;;32.63;19.23;;;;;;;0.41;70.58;99636.59;5087588;28;20683;-73
2022/03/04 07:17:31;;;;;;;36.23;20.07;;;;;;;0.40;70.98;99635.78;5060031;28;20244;-74
2022/03/04 07:19:57;;;;;;;31.10;17.80;;;;;;;0.46;69.53;99639.59;5095491;28;20293;-78
2022/03/04 07:22:24;;;;;;;32.70;19.10;;;;;;;0.42;69.65;99636.44;5087520;28;20292;-73
2022/03/04 07:24:51;;;;;;;34.20;19.57;;;;;;;0.45;69.44;99648.50;5079983;28;20227;-72
2022/03/04 07:27:18;;;;;;;33.50;19.63;;;;;;;0.46;68.75;99644.03;5078791;28;20220;-73
2022/03/04 07:29:44;;;;;;;31.43;19.20;;;;;;;0.56;68.10;99653.47;5061710;28;20224;-74
2022/03/04 07:32:12;;;;;;;30.73;19.37;;;;;;;0.50;68.13;99650.66;5095583;28;20216;-73
2022/03/04 07:34:39;;;;;;;31.50;18.57;;;;;;;0.64;68.00;99647.47;5094941;28;20318;-73
2022/03/04 07:37:06;;;;;;;34.27;19.43;;;;;;;0.89;66.58;99652.69;5095328;28;20239;-73
2022/03/04 07:39:33;;;;;;;31.43;18.80;;;;;;;0.96;65.27;99654.72;5094221;28;20302;-76
2022/03/04 07:42:01;;;;;;;35.73;18.77;;;;;;;0.99;64.71;99646.47;5096457;28;20230;-73
2022/03/04 07:44:30;;;;;;;33.47;18.67;;;;;;;1.20;64.42;99649.53;5088268;28;20228;-77
2022/03/04 07:46:57;;;;;;;32.60;18.83;;;;;;;1.29;63.57;99648.59;5094798;28;20314;-75
2022/03/04 07:49:24;;;;;;;34.90;20.03;;;;;;;1.25;62.96;99652.53;5093061;28;20670;-73
2022/03/04 07:51:51;;;;;;;35.97;20.60;;;;;;;1.23;62.97;99663.25;5089417;28;20277;-73
2022/03/04 07:54:18;;;;;;;35.13;18.93;;;;;;;1.26;62.93;99659.47;5089621;28;20295;-72
2022/03/04 07:56:45;;;;;;;31.43;18.63;;;;;;;1.23;63.48;99652.69;5093309;28;20228;-81
2022/03/04 07:59:12;;;;;;;29.20;17.50;;;;;;;1.15;63.76;99667.66;5095022;28;20238;-74
2022/03/04 08:01:42;;;;;;;28.97;17.13;;;;;;;1.16;63.19;99662.25;5094955;28;20220;-73
2022/03/04 08:04:11;;;;;;;28.30;17.20;;;;;;;1.36;62.11;99652.22;5088830;28;20256;-79
2022/03/04 08:06:41;;;;;;;26.80;16.90;;;;;;;1.48;61.28;99655.41;5092837;28;20240;-76
2022/03/04 08:09:08;;;;;;;31.47;17.63;;;;;;;1.40;62.44;99658.03;5092130;28;20324;-74
2022/03/04 08:11:39;;;;;;;31.00;18.07;;;;;;;1.48;62.14;99650.97;5096201;28;20228;-73
2022/03/04 08:14:06;;;;;;;32.73;19.13;;;;;;;1.48;61.89;99656.25;5075204;28;20236;-75
2022/03/04 08:16:33;;;;;;;29.37;17.13;;;;;;;1.59;60.96;99661.19;5094396;28;20228;-73
2022/03/04 08:19:03;;;;;;;29.53;17.67;;;;;;;1.62;60.86;99668.00;5087866;28;20236;-72
2022/03/04 08:21:30;;;;;;;28.80;17.93;;;;;;;1.69;61.03;99663.69;5095068;28;20278;-74
2022/03/04 08:23:57;;;;;;;31.53;19.53;;;;;;;1.71;60.07;99656.44;5096327;28;20232;-73
2022/03/04 08:26:24;;;;;;;30.37;18.13;;;;;;;1.41;61.21;99665.78;5074666;28;20326;-76
2022/03/04 08:28:51;;;;;;;32.60;19.90;;;;;;;1.43;61.23;99662.97;5070275;28;20292;-73
2022/03/04 08:31:18;;;;;;;30.57;19.33;;;;;;;1.46;61.65;99658.19;5088706;28;20274;-73
2022/03/04 08:33:45;;;;;;;27.07;17.47;;;;;;;1.51;60.81;99663.81;5081305;28;20647;-73
2022/03/04 08:36:13;;;;;;;32.10;17.90;;;;;;;1.49;60.46;99657.06;5055499;28;20239;-75
2022/03/04 08:38:40;;;;;;;30.43;17.70;;;;;;;1.70;60.35;99666.19;5076322;28;20247;-73
2022/03/04 08:41:06;;;;;;;32.43;19.57;;;;;;;1.72;59.97;99666.03;5080123;28;20332;-75
2022/03/04 08:43:34;;;;;;;29.80;17.43;;;;;;;1.76;59.78;99668.19;5096502;28;20215;-76
2022/03/04 08:46:03;;;;;;;32.10;19.40;;;;;;;1.86;60.14;99668.03;5076687;28;20703;-73
2022/03/04 08:48:30;;;;;;;30.97;18.80;;;;;;;1.96;58.68;99663.41;5072889;28;20231;-72
2022/03/04 08:50:57;;;;;;;28.47;18.20;;;;;;;2.07;58.62;99660.47;5095457;28;20232;-72
2022/03/04 08:53:24;;;;;;;31.87;19.83;;;;;;;2.27;57.87;99662.78;5091782;28;20212;-73
2022/03/04 08:55:51;;;;;;;30.33;18.50;;;;;;;2.44;57.51;99656.47;5092218;28;20228;-72
2022/03/04 08:58:18;;;;;;;31.03;18.60;;;;;;;2.50;56.61;99647.88;5075146;28;20299;-73
2022/03/04 09:00:48;;;;;;;29.87;18.70;;;;;;;2.26;56.68;99646.09;5078631;28;20315;-79
2022/03/04 09:03:15;;;;;;;28.77;18.53;;;;;;;2.42;56.86;99646.09;5075579;28;20283;-73
2022/03/04 09:05:42;;;;;;;33.90;18.73;;;;;;;2.30;57.33;99650.03;5088978;28;20224;-73
2022/03/04 09:08:09;;;;;;;31.57;19.20;;;;;;;2.06;58.48;99653.50;5073289;28;20284;-76
2022/03/04 09:10:35;;;;;;;33.07;19.20;;;;;;;2.10;58.00;99654.81;5079540;28;20240;-75
2022/03/04 09:13:04;;;;;;;31.00;20.00;;;;;;;2.17;57.69;99657.66;5084545;28;20243;-72
2022/03/04 09:15:32;;;;;;;31.90;19.47;;;;;;;2.08;57.53;99659.47;5082601;28;20246;-74
2022/03/04 09:17:59;;;;;;;31.67;19.43;;;;;;;2.10;57.42;99662.75;5086485;28;20232;-73
2022/03/04 09:20:32;;;;;;;30.77;19.43;;;;;;;2.16;57.24;99662.09;5078554;28;20232;-73
2022/03/04 09:22:59;;;;;;;33.63;19.73;;;;;;;2.41;56.97;99655.00;5078112;28;20255;-74
2022/03/04 09:25:27;;;;;;;32.37;20.13;;;;;;;2.48;56.47;99658.63;5089498;28;20314;-73
2022/03/04 09:27:54;;;;;;;32.73;19.67;;;;;;;2.46;56.59;99646.56;5087844;28;20292;-72
2022/03/04 09:30:21;;;;;;;34.43;21.30;;;;;;;2.47;55.79;99662.25;5090156;28;20646;-72
2022/03/04 09:32:48;;;;;;;35.50;19.50;;;;;;;2.30;56.36;99671.19;5070489;28;20346;-73
2022/03/04 09:35:15;;;;;;;32.47;20.17;;;;;;;2.38;56.49;99671.19;5086109;28;20315;-72
2022/03/04 09:37:48;;;;;;;31.23;18.97;;;;;;;2.53;56.52;99660.75;5072793;28;20228;-75
2022/03/04 09:40:16;;;;;;;32.17;19.03;;;;;;;2.76;55.02;99659.06;5071720;28;20256;-73
2022/03/04 09:42:42;;;;;;;33.47;18.90;;;;;;;2.89;54.44;99659.34;5079100;28;20238;-72
2022/03/04 09:45:09;;;;;;;30.60;18.97;;;;;;;3.07;54.90;99662.66;5085828;28;20315;-75
2022/03/04 09:47:40;;;;;;;31.00;19.43;;;;;;;3.07;54.05;99667.94;5086004;28;20224;-72
2022/03/04 09:50:07;;;;;;;30.87;20.33;;;;;;;3.16;53.95;99658.13;5087163;28;20233;-73
2022/03/04 09:52:35;;;;;;;31.47;19.87;;;;;;;3.40;53.52;99657.22;5066321;28;20229;-72
2022/03/04 09:55:02;;;;;;;31.97;20.23;;;;;;;3.52;52.97;99661.94;5074381;28;20232;-77
2022/03/04 09:57:29;;;;;;;32.73;19.23;;;;;;;3.44;53.29;99664.63;5087699;28;20700;-73
2022/03/04 09:59:56;;;;;;;30.87;19.70;;;;;;;3.67;52.48;99654.06;5076276;28;20224;-76
2022/03/04 10:02:25;;;;;;;31.43;19.37;;;;;;;3.96;51.56;99646.28;5073200;28;20298;-73
2022/03/04 10:04:59;;;;;;;30.87;20.30;;;;;;;3.81;51.76;99650.69;5058961;28;20530;-74
2022/03/04 10:07:27;;;;;;;30.83;19.93;;;;;;;3.64;52.19;99661.56;5084691;28;20236;-75
2022/03/04 10:09:54;;;;;;;27.63;18.67;;;;;;;3.62;52.00;99651.13;5091162;28;20541;-73
2022/03/04 10:12:22;;;;;;;30.80;19.70;;;;;;;3.69;51.70;99652.06;5085706;28;20421;-74
2022/03/04 10:15:06;;;;;;;33.97;20.13;;;;;;;3.50;52.29;99669.22;5083935;28;20242;-74
2022/03/04 10:17:37;;;;;;;31.03;19.40;;;;;;;3.77;51.13;99651.22;5090785;28;20244;-73
2022/03/04 10:20:13;;;;;;;30.40;18.87;;;;;;;3.85;51.69;99654.63;5075896;28;20256;-75
2022/03/04 10:22:45;;;;;;;30.70;19.63;;;;;;;3.36;52.07;99658.56;5086427;28;20644;-73
2022/03/04 10:25:24;;;;;;;30.20;20.40;;;;;;;3.81;52.07;99661.28;5085290;28;20216;-74
2022/03/04 10:27:52;;;;;;;27.93;18.50;;;;;;;4.16;50.66;99657.19;5075845;28;20213;-77
2022/03/04 10:30:34;;;;;;;30.53;19.53;;;;;;;4.26;50.84;99657.78;5090724;28;20251;-73
2022/03/04 10:33:06;;;;;;;27.80;19.03;;;;;;;4.56;49.94;99652.56;5081349;28;20236;-74
2022/03/04 10:35:36;;;;;;;28.53;19.27;;;;;;;4.67;49.11;99646.78;5075986;28;20223;-73
2022/03/04 10:38:04;;;;;;;28.93;18.70;;;;;;;4.86;48.30;99649.75;5083711;28;20213;-73
2022/03/04 10:40:35;;;;;;;27.10;18.10;;;;;;;4.85;48.44;99647.31;5092487;28;20243;-73
2022/03/04 10:43:01;;;;;;;28.27;18.90;;;;;;;4.73;47.92;99646.09;5086576;28;20574;-77
2022/03/04 10:45:32;;;;;;;30.37;18.63;;;;;;;4.71;47.63;99645.47;5092340;28;20224;-77
2022/03/04 10:48:02;;;;;;;25.60;17.50;;;;;;;5.41;46.93;99648.47;5086246;28;20229;-73
2022/03/04 10:50:38;;;;;;;28.43;18.83;;;;;;;5.68;45.74;99647.75;5083930;28;20229;-72
2022/03/04 10:53:10;;;;;;;25.77;17.27;;;;;;;6.20;44.99;99644.81;5068291;28;20324;-72
2022/03/04 10:55:47;;;;;;;25.77;18.03;;;;;;;5.99;44.30;99642.16;5085348;28;20318;-74
2022/03/04 10:58:24;;;;;;;26.03;17.93;;;;;;;5.66;45.01;99643.63;5069023;28;20228;-77
2022/03/04 11:01:02;;;;;;;26.87;18.47;;;;;;;5.93;44.58;99645.56;5089740;28;20241;-74
2022/03/04 11:03:31;;;;;;;25.37;17.97;;;;;;;5.40;45.39;99632.69;5089987;28;20224;-73
2022/03/04 11:06:01;;;;;;;26.47;17.57;;;;;;;5.69;45.21;99640.59;5087418;28;20628;-73
2022/03/04 11:08:28;;;;;;;24.67;17.10;;;;;;;5.23;45.53;99635.53;5072820;28;20236;-73
2022/03/04 11:11:00;;;;;;;25.43;17.00;;;;;;;5.55;45.92;99636.16;5075912;28;20239;-73
2022/03/04 11:13:29;;;;;;;24.10;16.50;;;;;;;6.43;43.97;99628.66;5076771;28;20259;-73
2022/03/04 11:15:56;;;;;;;25.50;17.20;;;;;;;6.54;43.20;99621.97;5086498;28;20725;-78
2022/03/04 11:18:24;;;;;;;24.17;16.67;;;;;;;6.48;42.54;99628.06;5082364;28;20623;-74
2022/03/04 11:20:57;;;;;;;23.80;16.63;;;;;;;6.36;43.54;99633.09;5087512;28;20228;-73
2022/03/04 11:23:31;;;;;;;25.67;17.43;;;;;;;6.51;43.29;99630.34;5080869;28;20263;-74
2022/03/04 11:26:20;;;;;;;27.93;17.60;;;;;;;6.13;43.11;99643.94;5090552;28;20747;-77
2022/03/04 11:28:51;;;;;;;23.27;15.80;;;;;;;5.82;44.35;99629.28;5075420;28;20663;-73